createdAt,value
2022-10-20T00:02:47.972Z,9.93
2022-10-20T00:07:51.684Z,11.02
2022-10-20T00:12:54.039Z,13.15
2022-10-20T00:17:56.430Z,9.20
2022-10-20T00:23:00.121Z,10.55
2022-10-20T00:28:02.508Z,10.10
2022-10-20T00:33:05.526Z,11.73
2022-10-20T00:38:09.329Z,13.85
2022-10-20T00:43:12.867Z,11.30
2022-10-20T00:48:16.067Z,10.40
2022-10-20T00:53:19.824Z,10.18
2022-10-20T00:58:22.347Z,12.20
2022-10-20T01:03:26.788Z,10.95
2022-10-20T01:08:30.523Z,12.25
2022-10-20T01:13:36.269Z,9.85
2022-10-20T01:18:41.950Z,12.80
2022-10-20T01:23:53.978Z,11.45
2022-10-20T01:28:58.881Z,11.43
2022-10-20T01:34:05.438Z,12.50
2022-10-20T01:39:09.863Z,10.85
2022-10-20T01:44:15.934Z,8.70
2022-10-20T01:49:18.342Z,9.43
2022-10-20T01:54:21.649Z,9.02
2022-10-20T01:59:44.822Z,13.60
2022-10-20T02:04:55.742Z,8.65
2022-10-20T02:10:01.653Z,9.65
2022-10-20T02:15:05.156Z,12.40
2022-10-20T02:20:09.944Z,11.02
2022-10-20T02:25:12.427Z,13.02
2022-10-20T02:30:16.305Z,17.00
2022-10-20T02:35:21.593Z,11.27
2022-10-20T02:40:24.115Z,11.13
2022-10-20T02:45:26.665Z,13.27
2022-10-20T02:50:30.435Z,10.52
2022-10-20T02:55:32.819Z,10.93
2022-10-20T03:00:35.236Z,11.63
2022-10-20T03:05:41.762Z,9.05
2022-10-20T03:10:44.253Z,11.45
2022-10-20T03:15:46.633Z,12.52
2022-10-20T03:20:52.842Z,12.07
2022-10-20T03:25:55.210Z,12.75
2022-10-20T03:30:57.625Z,13.18
2022-10-20T03:36:01.323Z,11.50
2022-10-20T03:41:03.758Z,15.63
2022-10-20T03:46:07.413Z,13.23
2022-10-20T03:56:17.664Z,11.27
2022-10-20T04:01:25.604Z,13.63
2022-10-20T04:06:28.017Z,9.95
2022-10-20T04:11:31.741Z,13.50
2022-10-20T04:16:34.106Z,12.68
2022-10-20T04:21:37.014Z,12.00
2022-10-20T04:26:40.740Z,12.05
2022-10-20T04:31:46.789Z,13.73
2022-10-20T04:36:51.484Z,15.50
2022-10-20T04:41:55.222Z,14.40
2022-10-20T04:46:57.561Z,15.88
2022-10-20T04:52:01.127Z,14.68
2022-10-20T04:57:06.177Z,14.23
2022-10-20T05:02:08.583Z,15.77
2022-10-20T05:07:11.025Z,14.70
2022-10-20T05:17:22.027Z,17.60
2022-10-20T05:22:24.384Z,18.33
2022-10-20T05:27:28.500Z,16.00
2022-10-20T05:32:30.847Z,16.27
2022-10-20T05:37:33.211Z,19.30
2022-10-20T05:42:37.237Z,18.63
2022-10-20T05:47:39.861Z,18.08
2022-10-20T05:52:42.245Z,17.90
2022-10-20T05:57:45.960Z,18.38
2022-10-20T06:02:48.295Z,17.27
2022-10-20T06:07:50.662Z,18.10
2022-10-20T06:12:54.360Z,17.83
2022-10-20T06:17:56.688Z,18.75
2022-10-20T06:22:59.080Z,17.35
2022-10-20T06:28:02.749Z,16.70
2022-10-20T06:33:05.105Z,20.63
2022-10-20T06:38:07.482Z,16.20
2022-10-20T06:43:11.162Z,18.23
2022-10-20T06:48:13.516Z,18.50
2022-10-20T06:53:15.922Z,15.60
2022-10-20T06:58:19.654Z,13.95
2022-10-20T07:03:22.016Z,16.27
2022-10-20T07:08:25.082Z,16.35
2022-10-20T07:13:29.692Z,16.77
2022-10-20T07:18:32.560Z,15.65
2022-10-20T07:23:35.545Z,14.63
2022-10-20T07:28:40.803Z,15.07
2022-10-20T07:33:43.190Z,14.43
2022-10-20T07:38:46.188Z,16.02
2022-10-20T07:43:49.930Z,13.48
2022-10-20T07:48:52.417Z,13.02
2022-10-20T07:53:59.678Z,12.88
2022-10-20T07:59:04.892Z,12.52
2022-10-20T08:04:07.286Z,12.18
2022-10-20T08:09:09.661Z,12.00
2022-10-20T08:14:13.467Z,11.07
2022-10-20T08:19:40.059Z,9.52
2022-10-20T08:24:42.427Z,10.05
2022-10-20T08:29:55.010Z,10.53
2022-10-20T08:35:02.915Z,10.73
2022-10-20T08:40:05.735Z,10.70
2022-10-20T08:45:15.095Z,10.45
2022-10-20T08:50:18.790Z,10.45
2022-10-20T08:55:25.021Z,10.25
2022-10-20T09:00:31.037Z,8.90
2022-10-20T09:05:34.912Z,9.95
2022-10-20T09:10:38.026Z,9.18
2022-10-20T09:15:42.092Z,8.20
2022-10-20T09:20:47.469Z,8.00
2022-10-20T09:25:50.744Z,8.05
2022-10-20T09:30:54.815Z,8.73
2022-10-20T09:36:00.388Z,9.38
2022-10-20T09:41:10.566Z,10.73
2022-10-20T09:46:18.117Z,7.50
2022-10-20T09:51:22.177Z,7.65
2022-10-20T09:56:28.691Z,8.35
2022-10-20T10:01:32.489Z,10.23
2022-10-20T10:06:41.952Z,8.07
2022-10-20T10:11:44.303Z,8.93
2022-10-20T10:16:48.046Z,11.97
2022-10-20T10:21:53.453Z,11.20
2022-10-20T10:26:56.887Z,10.95
2022-10-20T10:32:01.820Z,11.23
2022-10-20T10:37:04.240Z,11.68
2022-10-20T10:42:18.790Z,15.73
2022-10-20T10:47:28.358Z,12.02
2022-10-20T10:52:36.747Z,14.05
2022-10-20T10:57:46.177Z,10.27
2022-10-20T11:03:03.423Z,12.70
2022-10-20T11:08:13.686Z,10.95
2022-10-20T11:13:24.413Z,10.98
2022-10-20T11:18:45.383Z,11.85
2022-10-20T11:23:55.392Z,11.40
2022-10-20T11:28:58.432Z,12.48
2022-10-20T11:34:05.038Z,14.45
2022-10-20T11:39:12.718Z,11.38
2022-10-20T11:44:16.795Z,10.45
2022-10-20T11:49:19.685Z,13.07
2022-10-20T11:54:28.936Z,11.10
2022-10-20T11:59:46.208Z,13.65
2022-10-20T12:04:57.047Z,15.63
2022-10-20T12:10:10.282Z,12.38
2022-10-20T12:15:22.883Z,15.95
2022-10-20T12:20:43.680Z,12.30
2022-10-20T12:25:47.392Z,21.33
2022-10-20T12:30:55.359Z,15.85
2022-10-20T12:36:01.729Z,15.55
2022-10-20T12:41:05.654Z,18.15
2022-10-20T12:46:10.093Z,17.70
2022-10-20T12:51:24.005Z,15.27
2022-10-20T12:56:28.886Z,19.08
2022-10-20T13:01:31.653Z,21.27
2022-10-20T13:06:40.940Z,24.60
2022-10-20T13:11:46.057Z,25.45
2022-10-20T13:16:50.400Z,23.65
2022-10-20T13:21:52.884Z,24.63
2022-10-20T13:26:59.697Z,29.40
2022-10-20T13:37:23.909Z,31.40
2022-10-20T13:42:33.860Z,26.15
2022-10-20T13:47:46.151Z,33.30
2022-10-20T13:52:50.547Z,26.40
2022-10-20T13:57:55.795Z,21.73
2022-10-20T14:02:59.726Z,21.40
2022-10-20T14:08:06.170Z,19.63
2022-10-20T14:13:11.932Z,20.23
2022-10-20T14:18:21.690Z,22.48
2022-10-20T14:23:24.922Z,21.98
2022-10-20T14:33:31.168Z,22.90
2022-10-20T14:38:37.753Z,20.80
2022-10-20T14:43:41.472Z,20.58
2022-10-20T14:48:46.010Z,21.80
2022-10-20T14:53:48.634Z,21.48
2022-10-20T14:58:57.843Z,20.27
2022-10-20T15:04:16.691Z,18.33
2022-10-20T15:09:20.877Z,20.63
2022-10-20T15:14:23.425Z,19.52
2022-10-20T15:19:29.683Z,18.43
2022-10-20T15:24:32.109Z,23.98
2022-10-20T15:29:34.594Z,21.20
2022-10-20T15:34:39.148Z,25.43
2022-10-20T15:39:41.516Z,23.70
2022-10-20T15:44:43.883Z,18.23
2022-10-20T15:49:48.235Z,20.48
2022-10-20T15:54:50.713Z,23.20
2022-10-20T15:59:53.140Z,20.80
2022-10-20T16:04:56.928Z,21.43
2022-10-20T16:09:59.415Z,27.15
2022-10-20T16:15:02.097Z,33.53
2022-10-20T16:20:07.268Z,32.13
2022-10-20T16:25:10.321Z,38.80
2022-10-20T16:30:12.731Z,33.90
2022-10-20T16:35:16.459Z,30.67
2022-10-20T16:40:19.370Z,36.25
2022-10-20T16:50:30.418Z,41.58
2022-10-20T16:55:32.784Z,39.63
2022-10-20T17:00:35.227Z,41.70
2022-10-20T17:05:38.924Z,46.37
2022-10-20T17:10:42.736Z,42.22
2022-10-20T17:15:45.075Z,50.60
2022-10-20T17:20:53.103Z,43.35
2022-10-20T17:26:00.820Z,52.67
2022-10-20T17:31:03.564Z,45.15
2022-10-20T17:36:08.295Z,51.85
2022-10-20T17:41:11.697Z,62.08
2022-10-20T17:51:19.454Z,60.75
2022-10-20T17:56:23.107Z,64.93
2022-10-20T18:01:26.640Z,57.35
2022-10-20T18:06:34.157Z,70.53
2022-10-20T18:11:37.685Z,73.82
2022-10-20T18:16:40.475Z,71.55
2022-10-20T18:21:44.557Z,78.90
2022-10-20T18:26:47.411Z,58.25
2022-10-20T18:31:51.265Z,61.22
2022-10-20T18:36:56.306Z,68.22
2022-10-20T18:41:58.683Z,88.00
2022-10-20T18:47:01.154Z,87.30
2022-10-20T18:52:04.875Z,72.97
2022-10-20T18:57:07.222Z,69.97
2022-10-20T19:02:10.848Z,72.38
2022-10-20T19:07:14.566Z,71.35
2022-10-20T19:12:16.929Z,71.55
2022-10-20T19:17:19.320Z,61.33
2022-10-20T19:22:26.927Z,61.03
2022-10-20T19:27:31.664Z,60.97
2022-10-20T19:32:36.459Z,65.60
2022-10-20T19:37:42.788Z,62.15
2022-10-20T19:42:45.146Z,63.03
2022-10-20T19:47:47.565Z,60.40
2022-10-20T19:52:54.124Z,66.23
2022-10-20T19:57:58.894Z,64.88
2022-10-20T20:03:01.318Z,67.50
2022-10-20T20:08:05.527Z,64.13
2022-10-20T20:13:07.878Z,58.50
2022-10-20T20:18:12.041Z,73.47
2022-10-20T20:23:16.144Z,60.08
2022-10-20T20:28:18.505Z,59.30
2022-10-20T20:33:20.828Z,64.80
2022-10-20T20:38:24.579Z,63.50
2022-10-20T20:43:26.988Z,56.33
2022-10-20T20:48:29.335Z,69.13
2022-10-20T20:58:41.833Z,62.47
2022-10-20T21:03:44.194Z,62.60
2022-10-20T21:08:48.605Z,66.30
2022-10-20T21:13:51.801Z,55.70
2022-10-20T21:18:55.061Z,56.28
2022-10-20T21:23:59.574Z,58.35
2022-10-20T21:29:01.918Z,63.15
2022-10-20T21:34:05.370Z,57.22
2022-10-20T21:39:11.444Z,66.72
2022-10-20T21:44:14.556Z,67.35
2022-10-20T21:49:17.619Z,62.53
2022-10-20T21:54:22.434Z,59.95
2022-10-20T21:59:25.699Z,62.45
2022-10-20T22:04:28.911Z,58.58
2022-10-20T22:09:32.802Z,70.07
2022-10-20T22:14:35.125Z,69.82
2022-10-20T22:19:37.501Z,58.42
2022-10-20T22:24:41.224Z,79.25
2022-10-20T22:29:43.586Z,69.38
2022-10-20T22:34:45.955Z,71.43
2022-10-20T22:39:49.664Z,69.30
2022-10-20T22:44:52.023Z,76.85
2022-10-20T22:49:54.366Z,68.32
2022-10-20T22:54:58.234Z,63.75
2022-10-20T23:00:00.562Z,81.00
2022-10-20T23:05:02.993Z,76.28
2022-10-20T23:10:07.506Z,79.20
2022-10-20T23:15:10.239Z,83.93
2022-10-20T23:20:12.710Z,81.23
2022-10-20T23:25:16.469Z,76.22
2022-10-20T23:30:18.903Z,84.18
2022-10-20T23:35:21.262Z,80.57
2022-10-20T23:40:24.994Z,72.35
2022-10-20T23:45:27.381Z,70.13
2022-10-20T23:50:29.748Z,69.88
2022-10-20T23:55:33.453Z,72.93
